Pagrindinis puslapis
METAR-TAF:

METAR-TAF

Oro uostai :

Førde, Norvegija

platuma: 61-27N, ilguma: 005-52E, Aukštis: 150 m

Dabartinis oras

Ataskaita buvo paskelbta 37 minutes, ne 05:50 UTC
Vėjas 2 kt nuo kintamojo kryptimis
Temperatūra -5°C
Drėgmė 93%
Slėgis 996 hPa
Matomumas: 6000 m
Mažai debesys ne aukštis 800 ft
Su prošvaistėmis ne aukštis 1500 ft
sniegas

METAR: ENBL 020550Z VRB02KT 6000 -SHSN FEW008 BKN015 M05/M06 Q0996

Laikas: 07:27 (06:27 UTC)


TAF: trūkstamas

Orai ataskaitas ir orų prognozės (METAR, TAF).

turimą stotys yra geltonos ir raudonos taškus žemėlapyje.

Perkelti pele per norėdami pamatyti stoties vardą.

Tada spustelėkite, norėdami matyti oro stebėjimo ir prognozės.

Norėdami pakeisti žemėlapį: spustelėkite ant žalios mygtukų su juodo kryžiaus žemyn,; žalią mygtuką su brūkšneliu, jei norite nutolinti; arba žalių rodyklių gretimoms žemėlapius.


METAR-TAF: